Time;durP1;ratioP1;P1;durP2;ratioP2;P2;SDS_P1;SDS_P2;PMS_P1;PMS_P2;Temp;Humidity;BMP_temperature;BMP_pressure;BME280_temperature;BME280_humidity;BME280_pressure;Samples;Min_cycle;Max_cycle;Signal;HPM_P1;HPM_P2
2022/12/28 00:01:34;;;;;;;7.00;3.30;;;;;;;2.79;92.68;101633.59;7407797;19;20027;-76
2022/12/28 00:04:04;;;;;;;8.60;3.05;;;;;;;2.79;92.22;101632.72;7406338;19;20019;-76
2022/12/28 00:06:33;;;;;;;8.65;3.33;;;;;;;2.81;92.21;101629.34;7406545;19;20035;-77
2022/12/28 00:09:04;;;;;;;7.13;3.47;;;;;;;2.82;92.89;101623.31;7407525;19;20502;-77
2022/12/28 00:11:33;;;;;;;4.22;3.42;;;;;;;2.83;93.18;101614.72;7409580;19;20045;-77
2022/12/28 00:14:03;;;;;;;4.97;3.38;;;;;;;2.84;92.63;101620.75;7408030;19;20019;-77
2022/12/28 00:16:33;;;;;;;6.05;3.17;;;;;;;2.84;92.71;101611.25;7400201;19;20035;-75
2022/12/28 00:19:05;;;;;;;8.57;3.78;;;;;;;2.84;92.09;101602.63;7398174;19;20066;-76
2022/12/28 00:21:34;;;;;;;5.55;3.35;;;;;;;2.85;93.04;101600.06;7400122;19;20027;-76
2022/12/28 00:24:06;;;;;;;8.65;3.63;;;;;;;2.86;92.54;101607.00;7397665;19;20490;-76
2022/12/28 00:26:36;;;;;;;10.85;3.80;;;;;;;2.88;92.69;101609.63;7398358;19;20019;-76
2022/12/28 00:29:05;;;;;;;6.65;3.17;;;;;;;2.88;93.18;101604.44;7401090;19;20066;-77
2022/12/28 00:31:34;;;;;;;6.57;3.55;;;;;;;2.88;93.11;101605.31;7400555;19;20015;-75
2022/12/28 00:34:02;;;;;;;5.70;3.22;;;;;;;2.89;92.12;101598.41;7399905;19;20024;-76
2022/12/28 00:36:32;;;;;;;10.23;4.30;;;;;;;2.89;93.73;101591.53;7398390;19;20074;-76
2022/12/28 00:39:00;;;;;;;6.20;3.30;;;;;;;2.90;94.40;101592.41;7399656;19;20477;-76
2022/12/28 00:41:31;;;;;;;7.15;3.67;;;;;;;2.90;94.10;101590.66;7399872;19;20031;-77
2022/12/28 00:44:00;;;;;;;7.68;3.72;;;;;;;2.91;93.45;101584.66;7399060;19;20066;-77
2022/12/28 00:46:28;;;;;;;9.52;3.60;;;;;;;2.91;94.16;101583.78;7397746;19;20494;-77
2022/12/28 00:48:57;;;;;;;8.57;3.60;;;;;;;2.92;93.74;101585.53;7399698;19;20022;-77
2022/12/28 00:51:25;;;;;;;7.85;4.30;;;;;;;2.91;94.11;101584.66;7399608;19;20090;-77
2022/12/28 00:53:54;;;;;;;8.82;3.55;;;;;;;2.93;94.17;101584.69;7396848;19;20019;-77
2022/12/28 00:56:24;;;;;;;8.05;4.00;;;;;;;2.93;94.09;101582.09;7397005;19;20022;-77
2022/12/28 00:58:57;;;;;;;6.97;4.10;;;;;;;2.89;93.86;101575.97;7399355;19;20093;-77
2022/12/28 01:01:27;;;;;;;6.65;4.05;;;;;;;2.95;93.00;101584.75;7398925;19;20015;-77
2022/12/28 01:03:57;;;;;;;6.95;3.83;;;;;;;2.93;94.49;101580.38;7398220;19;20026;-76
2022/12/28 01:06:32;;;;;;;8.00;4.38;;;;;;;2.97;93.94;101586.53;7397786;19;20027;-77
2022/12/28 01:09:01;;;;;;;7.70;3.90;;;;;;;2.96;93.83;101582.16;7399080;19;20410;-77
2022/12/28 01:11:32;;;;;;;7.93;3.90;;;;;;;2.97;93.34;101576.16;7399675;19;20019;-78
2022/12/28 01:14:04;;;;;;;8.98;4.00;;;;;;;2.98;93.31;101582.19;7398909;19;20014;-76
2022/12/28 01:16:34;;;;;;;7.50;3.97;;;;;;;2.98;93.01;101579.59;7396969;19;20018;-76
2022/12/28 01:19:05;;;;;;;4.75;3.50;;;;;;;2.98;93.08;101585.66;7398858;19;20098;-76
2022/12/28 01:21:35;;;;;;;5.68;3.50;;;;;;;2.98;93.04;101584.78;7397618;19;20082;-77
2022/12/28 01:24:13;;;;;;;8.20;4.07;;;;;;;2.97;93.06;101573.56;7399984;19;20078;-73
2022/12/28 01:26:41;;;;;;;8.85;3.67;;;;;;;2.98;92.76;101566.66;7396787;19;20031;-72
2022/12/28 01:29:12;;;;;;;6.43;3.75;;;;;;;2.96;92.70;101563.13;7395819;19;20014;-72
2022/12/28 01:31:41;;;;;;;6.60;3.63;;;;;;;2.94;92.94;101552.72;7397967;19;20078;-73
2022/12/28 01:34:09;;;;;;;7.57;3.72;;;;;;;2.91;92.19;101544.91;7398088;19;20022;-72
2022/12/28 01:36:38;;;;;;;6.00;4.53;;;;;;;2.93;92.78;101549.28;7396247;19;20082;-72
2022/12/28 01:39:08;;;;;;;8.45;3.88;;;;;;;2.94;92.86;101550.13;7398088;19;20033;-72
2022/12/28 01:41:41;;;;;;;7.03;4.30;;;;;;;2.88;92.74;101531.84;7397621;19;20073;-72
2022/12/28 01:44:45;;;;;;;9.27;5.10;;;;;;;2.91;93.50;101542.31;7397444;19;20022;-71
2022/12/28 01:47:22;;;;;;;12.30;5.25;;;;;;;2.90;92.99;101540.56;7395181;19;20561;-73
2022/12/28 01:49:57;;;;;;;9.48;4.20;;;;;;;2.89;93.69;101531.03;7398078;19;20019;-71
2022/12/28 01:52:31;;;;;;;4.35;3.42;;;;;;;2.82;93.90;101519.66;7397257;19;20423;-72
2022/12/28 01:55:05;;;;;;;7.75;4.00;;;;;;;2.84;93.36;101509.31;7397767;19;20035;-73
2022/12/28 01:57:39;;;;;;;7.75;3.83;;;;;;;2.82;93.35;101509.28;7397885;19;20039;-72
2022/12/28 02:00:12;;;;;;;8.30;4.00;;;;;;;2.81;93.88;101506.66;7397091;19;20011;-72
2022/12/28 02:02:46;;;;;;;5.65;3.53;;;;;;;2.78;93.87;101502.28;7395663;19;20014;-72
2022/12/28 02:05:15;;;;;;;;;;;;;;;2.74;92.20;101488.38;7396113;19;20041;-72
2022/12/28 02:07:51;;;;;;;5.85;3.47;;;;;;;2.72;93.30;101492.66;7397141;19;19939;-70
2022/12/28 02:10:21;;;;;;;8.93;3.90;;;;;;;2.71;94.15;101479.66;7396682;19;20018;-72
2022/12/28 02:12:50;;;;;;;7.47;4.07;;;;;;;2.69;94.08;101476.16;7397140;19;20028;-72
2022/12/28 02:15:18;;;;;;;7.82;4.70;;;;;;;2.66;93.79;101469.19;7396474;19;20077;-71
2022/12/28 02:17:49;;;;;;;11.90;6.05;;;;;;;2.63;94.07;101463.94;7396743;19;20506;-73
2022/12/28 02:20:18;;;;;;;11.57;5.80;;;;;;;2.63;93.43;101456.16;7397391;19;20102;-72
2022/12/28 02:23:23;;;;;;;9.48;5.22;;;;;;;2.60;93.85;101448.31;7395116;19;20014;-72
2022/12/28 02:26:19;;;;;;;6.65;4.30;;;;;;;2.60;93.48;101437.94;7395080;19;20031;-71
2022/12/28 02:29:17;;;;;;;6.20;3.53;;;;;;;2.59;93.30;101431.00;7395290;19;20542;-71
2022/12/28 02:31:55;;;;;;;19.13;3.83;;;;;;;2.53;93.97;101423.13;7394778;19;20022;-70
2022/12/28 02:34:28;;;;;;;8.52;3.47;;;;;;;2.56;93.64;101418.00;7396711;19;20086;-70
2022/12/28 02:37:01;;;;;;;6.40;3.30;;;;;;;2.52;93.08;101408.44;7394584;19;20019;-70
2022/12/28 02:39:37;;;;;;;10.55;3.55;;;;;;;2.52;93.46;101409.28;7393465;19;20022;-71
2022/12/28 02:42:08;;;;;;;6.93;3.22;;;;;;;2.47;93.24;101394.50;7396664;19;20425;-72
2022/12/28 02:50:08;;;;;;;6.93;2.97;;;;;;;2.48;92.39;101386.75;7396379;19;20355;-70
2022/12/28 02:53:07;;;;;;;4.40;3.10;;;;;;;2.46;93.67;101380.66;7393915;19;20074;-71
2022/12/28 02:59:14;;;;;;;5.28;3.10;;;;;;;2.46;92.12;101383.25;7397761;19;20389;-72
2022/12/28 03:02:08;;;;;;;5.78;3.20;;;;;;;2.47;93.60;101377.22;7396904;19;20035;-72
2022/12/28 03:05:04;;;;;;;5.88;3.88;;;;;;;2.48;94.07;101370.31;7393995;19;20086;-67
2022/12/28 03:10:27;;;;;;;9.15;4.45;;;;;;;2.52;94.27;101357.47;7395489;19;20481;-71
2022/12/28 03:13:02;;;;;;;4.90;3.67;;;;;;;2.53;93.09;101355.78;7393198;19;20509;-70
2022/12/28 03:15:35;;;;;;;8.77;3.60;;;;;;;2.52;93.25;101351.44;7394504;19;20022;-70
2022/12/28 03:31:47;;;;;;;7.05;3.45;;;;;;;2.46;93.09;101317.63;7394949;19;20014;-71
2022/12/28 03:34:16;;;;;;;10.13;3.45;;;;;;;2.45;93.07;101314.16;7394220;19;20082;-71
2022/12/28 03:36:56;;;;;;;7.28;4.28;;;;;;;2.44;93.05;101323.66;7392436;19;20082;-70
2022/12/28 03:39:35;;;;;;;6.65;3.92;;;;;;;2.45;92.92;101316.75;7395587;19;20023;-70
2022/12/28 03:45:03;;;;;;;8.82;4.72;;;;;;;2.42;92.79;101294.25;7393402;19;20007;-71
2022/12/28 03:47:33;;;;;;;8.13;4.05;;;;;;;2.42;92.21;101291.66;7393848;19;20022;-70
2022/12/28 03:50:02;;;;;;;6.95;3.40;;;;;;;2.41;92.49;101276.97;7392540;19;20023;-71
2022/12/28 03:52:34;;;;;;;8.68;3.78;;;;;;;2.40;92.16;101267.47;7400319;19;20078;-71
2022/12/28 03:55:02;;;;;;;5.80;3.70;;;;;;;2.41;92.16;101264.03;7401061;19;20537;-71
2022/12/28 03:57:31;;;;;;;6.57;3.00;;;;;;;2.41;92.81;101264.03;7398471;19;20078;-71
2022/12/28 03:59:59;;;;;;;6.63;3.20;;;;;;;2.42;92.88;101257.97;7401672;19;20027;-71
2022/12/28 04:02:27;;;;;;;5.70;2.83;;;;;;;2.41;92.67;101251.09;7401191;19;20026;-72
2022/12/28 04:04:56;;;;;;;3.80;2.45;;;;;;;2.42;91.98;101250.22;7399560;19;20085;-72
2022/12/28 04:07:24;;;;;;;6.80;2.58;;;;;;;2.41;91.99;101235.53;7397882;19;20426;-72
2022/12/28 04:09:55;;;;;;;5.55;2.47;;;;;;;2.41;92.03;101227.78;7398319;19;20083;-72
2022/12/28 04:12:24;;;;;;;4.97;2.42;;;;;;;2.41;91.53;101220.00;7398658;19;20070;-72
2022/12/28 04:14:52;;;;;;;7.43;2.45;;;;;;;2.41;92.00;101216.53;7397825;19;20540;-72
2022/12/28 04:17:21;;;;;;;5.95;2.50;;;;;;;2.41;91.45;101213.94;7398178;19;20026;-71
2022/12/28 04:19:49;;;;;;;6.45;2.28;;;;;;;2.42;92.51;101210.50;7400307;19;20439;-72
2022/12/28 04:22:18;;;;;;;7.05;2.60;;;;;;;2.41;92.00;101204.47;7399125;19;20545;-72
2022/12/28 04:24:46;;;;;;;3.85;1.50;;;;;;;2.40;92.18;101215.66;7400064;19;20022;-72
2022/12/28 04:27:17;;;;;;;5.78;1.92;;;;;;;2.40;91.98;101212.19;7398054;19;20078;-71
2022/12/28 04:29:46;;;;;;;7.93;2.40;;;;;;;2.38;92.21;101201.81;7398316;19;20032;-72
2022/12/28 04:32:15;;;;;;;5.57;2.33;;;;;;;2.40;91.80;101201.81;7399807;19;20422;-71
2022/12/28 04:34:43;;;;;;;5.82;2.45;;;;;;;2.39;91.49;101190.59;7400241;19;20090;-71
2022/12/28 04:37:12;;;;;;;8.95;2.83;;;;;;;2.40;91.43;101188.88;7397271;19;20518;-70
2022/12/28 04:39:40;;;;;;;6.00;2.47;;;;;;;2.41;91.92;101188.03;7399487;19;20031;-71
2022/12/28 04:42:08;;;;;;;5.65;2.17;;;;;;;2.42;91.94;101187.19;7400033;19;20102;-71
2022/12/28 04:44:39;;;;;;;7.35;2.17;;;;;;;2.41;91.51;101186.34;7399191;19;20066;-71
2022/12/28 04:47:08;;;;;;;9.75;3.72;;;;;;;2.42;91.85;101187.19;7397641;19;20080;-71
2022/12/28 04:49:36;;;;;;;8.75;2.78;;;;;;;2.39;91.29;101185.41;7399241;19;20078;-72
2022/12/28 04:52:05;;;;;;;4.57;2.20;;;;;;;2.41;91.39;101183.75;7399815;19;20018;-72
2022/12/28 04:54:33;;;;;;;4.20;2.10;;;;;;;2.42;90.76;101188.06;7399588;19;20074;-72
2022/12/28 04:57:02;;;;;;;6.80;2.28;;;;;;;2.42;91.21;101201.00;7396868;19;20018;-71
2022/12/28 04:59:30;;;;;;;4.75;2.30;;;;;;;2.42;90.34;101194.97;7399025;19;20022;-72
2022/12/28 05:02:01;;;;;;;4.07;2.20;;;;;;;2.40;90.98;101192.34;7398608;19;20019;-72
2022/12/28 05:04:30;;;;;;;4.15;1.98;;;;;;;2.41;92.29;101186.34;7399204;19;20082;-72
2022/12/28 05:06:58;;;;;;;5.63;2.10;;;;;;;2.41;92.08;101186.34;7397249;19;20083;-71
2022/12/28 05:09:27;;;;;;;6.45;2.30;;;;;;;2.41;91.51;101183.75;7398717;19;20077;-72
2022/12/28 05:11:55;;;;;;;9.32;2.38;;;;;;;2.42;91.76;101169.06;7399563;19;20089;-72
2022/12/28 05:14:24;;;;;;;7.50;3.00;;;;;;;2.42;92.22;101159.56;7398966;19;20031;-72
2022/12/28 05:16:52;;;;;;;9.32;2.95;;;;;;;2.42;92.48;101163.88;7397039;19;20031;-71
2022/12/28 05:19:23;;;;;;;3.80;2.03;;;;;;;2.42;90.98;101156.97;7396550;19;20018;-71
2022/12/28 05:21:52;;;;;;;6.95;2.65;;;;;;;2.46;90.73;101162.22;7398444;19;20074;-72
2022/12/28 05:24:20;;;;;;;7.25;2.72;;;;;;;2.48;91.18;101158.81;7398078;19;20086;-72
2022/12/28 05:26:49;;;;;;;4.15;2.30;;;;;;;2.50;89.83;101157.13;7396661;19;20039;-71
2022/12/28 05:29:17;;;;;;;6.18;2.45;;;;;;;2.55;89.92;101154.63;7399522;19;20015;-72
2022/12/28 05:31:46;;;;;;;6.65;2.08;;;;;;;2.59;90.55;101159.00;7397844;19;20506;-71
2022/12/28 05:34:14;;;;;;;8.55;2.55;;;;;;;2.63;89.90;101160.81;7397775;19;20080;-72
2022/12/28 05:36:45;;;;;;;4.13;2.25;;;;;;;2.68;88.83;101156.59;7396685;19;20077;-72
2022/12/28 05:39:13;;;;;;;5.90;2.30;;;;;;;2.73;90.01;101154.94;7397873;19;20424;-73
2022/12/28 05:41:42;;;;;;;5.70;2.40;;;;;;;2.77;90.87;101146.38;7395888;19;20074;-72
2022/12/28 05:44:11;;;;;;;5.07;2.80;;;;;;;2.82;90.29;101153.34;7397667;19;20074;-72
2022/12/28 05:46:39;;;;;;;5.30;2.40;;;;;;;2.85;89.16;101135.28;7395306;19;20541;-71
2022/12/28 05:49:09;;;;;;;8.18;2.55;;;;;;;2.88;88.87;101135.31;7397990;19;20082;-71
2022/12/28 05:51:38;;;;;;;3.72;2.55;;;;;;;2.93;89.36;101126.78;7397658;19;20550;-71
2022/12/28 05:54:09;;;;;;;10.07;2.42;;;;;;;2.96;88.51;101125.94;7395529;19;20086;-71
2022/12/28 05:56:38;;;;;;;10.82;2.72;;;;;;;3.01;89.30;101126.00;7396423;19;20022;-71
2022/12/28 05:59:08;;;;;;;8.65;2.38;;;;;;;3.05;88.85;101123.47;7397350;19;20102;-71
2022/12/28 06:01:39;;;;;;;4.88;2.70;;;;;;;3.09;88.20;101108.84;7397636;19;20039;-71
2022/12/28 06:04:09;;;;;;;4.07;2.45;;;;;;;3.12;88.73;101111.47;7398171;19;20307;-72
2022/12/28 06:06:38;;;;;;;4.93;2.28;;;;;;;3.17;89.37;101101.19;7395352;19;20513;-72
2022/12/28 06:09:09;;;;;;;9.88;2.50;;;;;;;3.21;86.64;101106.44;7397078;19;20040;-71
2022/12/28 06:11:38;;;;;;;8.80;2.20;;;;;;;3.24;88.56;101106.47;7396734;19;20541;-71
2022/12/28 06:14:07;;;;;;;8.05;3.22;;;;;;;3.29;87.92;101103.97;7395182;19;20078;-70
2022/12/28 06:16:38;;;;;;;6.70;2.38;;;;;;;3.31;86.31;101107.44;7395071;19;20006;-71
2022/12/28 06:19:09;;;;;;;5.32;2.50;;;;;;;3.37;87.32;101085.91;7396753;19;20105;-72
2022/12/28 06:21:40;;;;;;;5.40;2.33;;;;;;;3.41;88.37;101098.94;7397127;19;20022;-71
2022/12/28 06:24:12;;;;;;;5.80;2.50;;;;;;;3.45;87.51;101094.69;7395387;19;20015;-71
2022/12/28 06:26:43;;;;;;;9.63;2.75;;;;;;;3.48;87.74;101088.66;7394791;19;20010;-71
2022/12/28 06:29:12;;;;;;;4.60;2.22;;;;;;;3.53;87.08;101105.16;7396121;19;20496;-71
2022/12/28 06:31:42;;;;;;;5.68;2.20;;;;;;;3.54;86.65;101088.72;7396042;19;20427;-72
2022/12/28 06:34:11;;;;;;;5.65;2.22;;;;;;;3.57;86.13;101088.75;7394796;19;20040;-71
2022/12/28 06:36:42;;;;;;;6.75;2.60;;;;;;;3.61;85.43;101087.94;7394478;19;20031;-72
2022/12/28 06:39:20;;;;;;;3.97;2.17;;;;;;;3.65;86.05;101088.84;7396176;19;20015;-71
2022/12/28 06:41:48;;;;;;;3.47;2.20;;;;;;;3.68;85.93;101079.38;7397062;19;20023;-71
2022/12/28 06:44:17;;;;;;;6.43;2.63;;;;;;;3.71;86.87;101070.75;7394015;19;20510;-71
2022/12/28 06:46:45;;;;;;;6.05;2.65;;;;;;;3.71;87.23;101071.63;7393716;19;20082;-71
2022/12/28 06:49:13;;;;;;;6.05;2.08;;;;;;;3.71;86.80;101069.03;7395490;19;20081;-71
2022/12/28 06:51:42;;;;;;;5.60;2.75;;;;;;;3.73;88.15;101058.69;7395763;19;20078;-71
2022/12/28 06:54:11;;;;;;;5.45;2.63;;;;;;;3.70;87.58;101067.31;7395069;19;20086;-72
2022/12/28 06:56:42;;;;;;;6.82;2.35;;;;;;;3.72;88.49;101070.78;7393909;19;20427;-71
2022/12/28 06:59:11;;;;;;;6.07;2.60;;;;;;;3.70;88.19;101056.94;7394864;19;20485;-71
2022/12/28 07:01:43;;;;;;;4.03;2.70;;;;;;;3.70;89.02;101067.31;7394927;19;20489;-71
2022/12/28 07:04:12;;;;;;;10.00;2.47;;;;;;;3.68;89.31;101050.84;7393833;19;20026;-72
2022/12/28 07:06:43;;;;;;;4.95;2.40;;;;;;;3.66;89.29;101049.94;7393491;19;20070;-71
2022/12/28 07:09:14;;;;;;;7.38;3.13;;;;;;;3.66;90.36;101043.88;7395515;19;20026;-71
2022/12/28 07:11:46;;;;;;;5.80;2.30;;;;;;;3.64;90.72;101030.91;7394691;19;20504;-71
2022/12/28 07:14:14;;;;;;;5.22;2.55;;;;;;;3.65;91.01;101034.34;7394648;19;20082;-71
2022/12/28 07:16:43;;;;;;;6.93;3.00;;;;;;;3.59;91.31;101019.59;7392743;19;20089;-71
2022/12/28 07:19:12;;;;;;;7.78;3.10;;;;;;;3.63;91.75;101018.78;7394171;19;20086;-71
2022/12/28 07:21:41;;;;;;;8.68;3.53;;;;;;;3.62;92.20;101016.19;7394503;19;20019;-71
2022/12/28 07:24:16;;;;;;;7.93;3.30;;;;;;;3.61;92.34;101010.09;7392618;19;20070;-71
2022/12/28 07:26:47;;;;;;;7.82;3.53;;;;;;;3.61;92.92;101010.09;7399783;19;20022;-72
2022/12/28 07:29:16;;;;;;;11.50;5.07;;;;;;;3.57;92.73;100998.81;7402801;19;20015;-71
2022/12/28 07:31:44;;;;;;;10.80;4.28;;;;;;;3.59;93.08;101004.91;7401743;19;20517;-71
2022/12/28 07:34:13;;;;;;;9.27;4.50;;;;;;;3.57;92.92;100997.94;7402013;19;20085;-72
2022/12/28 07:36:42;;;;;;;14.60;6.18;;;;;;;3.57;93.13;100984.97;7399553;19;20078;-71
2022/12/28 07:39:11;;;;;;;13.75;5.85;;;;;;;3.57;93.45;100991.03;7402168;19;20018;-71
2022/12/28 07:41:39;;;;;;;9.38;3.47;;;;;;;3.57;93.32;100984.97;7401937;19;20430;-72
2022/12/28 07:44:10;;;;;;;9.20;2.88;;;;;;;3.55;93.12;100979.78;7401580;19;20027;-71
2022/12/28 07:46:39;;;;;;;6.22;2.75;;;;;;;3.56;93.03;100973.75;7399263;19;20094;-71
2022/12/28 07:49:08;;;;;;;6.07;2.50;;;;;;;3.57;93.47;100972.00;7401686;19;20018;-71
2022/12/28 07:51:39;;;;;;;9.60;2.50;;;;;;;3.57;92.79;100977.19;7401064;19;20078;-70
2022/12/28 07:54:07;;;;;;;5.43;2.40;;;;;;;3.58;93.18;100978.94;7401806;19;20010;-70
2022/12/28 07:56:36;;;;;;;5.70;2.50;;;;;;;3.58;92.62;100973.75;7398174;19;20167;-71
2022/12/28 07:59:07;;;;;;;7.72;2.60;;;;;;;3.61;93.14;100978.09;7398069;19;20077;-71
2022/12/28 08:01:38;;;;;;;5.88;2.28;;;;;;;3.61;92.73;100970.31;7401174;19;20018;-71
2022/12/28 08:04:08;;;;;;;6.00;2.65;;;;;;;3.57;92.94;100966.81;7401135;19;20018;-71
2022/12/28 08:06:39;;;;;;;5.07;2.28;;;;;;;3.62;93.17;100966.88;7398846;19;20081;-71
2022/12/28 08:09:09;;;;;;;7.95;2.20;;;;;;;3.64;92.89;100965.16;7400427;19;20078;-71
2022/12/28 08:11:39;;;;;;;6.47;2.33;;;;;;;3.65;92.07;100961.69;7400329;19;20027;-71
2022/12/28 08:14:09;;;;;;;7.72;3.00;;;;;;;3.64;92.80;100955.66;7400898;19;20082;-71
2022/12/28 08:16:43;;;;;;;6.40;2.53;;;;;;;3.67;92.92;100960.88;7397584;19;20376;-71
2022/12/28 08:19:12;;;;;;;4.77;2.07;;;;;;;3.70;92.94;100965.22;7401358;19;20019;-71
2022/12/28 08:21:43;;;;;;;5.15;2.22;;;;;;;3.70;92.72;100955.72;7400275;19;20556;-72
2022/12/28 08:24:15;;;;;;;4.53;2.22;;;;;;;3.69;92.46;100953.97;7398310;19;20031;-71
2022/12/28 08:26:44;;;;;;;3.03;1.95;;;;;;;3.74;92.42;100952.28;7398330;19;20481;-71
2022/12/28 08:29:15;;;;;;;4.63;2.13;;;;;;;3.75;92.45;100946.25;7400483;19;20015;-70
2022/12/28 08:31:47;;;;;;;4.95;1.80;;;;;;;3.80;92.29;100948.00;7400635;19;20014;-71
2022/12/28 08:34:18;;;;;;;5.55;2.20;;;;;;;3.82;92.47;100943.72;7399508;19;20496;-71
2022/12/28 08:36:47;;;;;;;4.15;1.80;;;;;;;3.86;91.64;100943.75;7396236;19;20042;-71
2022/12/28 08:39:16;;;;;;;3.05;2.33;;;;;;;3.89;91.65;100936.00;7399576;19;20401;-71
2022/12/28 08:41:44;;;;;;;3.17;2.00;;;;;;;3.93;91.65;100939.50;7399336;19;20017;-71
2022/12/28 08:44:12;;;;;;;4.10;2.22;;;;;;;3.98;91.85;100935.22;7399607;19;20035;-72
2022/12/28 08:46:41;;;;;;;4.25;2.45;;;;;;;4.02;91.96;100926.56;7397634;19;20086;-71
2022/12/28 08:49:13;;;;;;;6.78;4.07;;;;;;;4.07;91.19;100934.41;7400245;19;20347;-71
2022/12/28 08:51:43;;;;;;;5.65;2.40;;;;;;;4.12;91.27;100921.44;7400108;19;20035;-71
2022/12/28 08:54:13;;;;;;;9.05;4.72;;;;;;;4.15;90.92;100911.09;7399290;19;20089;-72
2022/12/28 08:56:44;;;;;;;5.63;2.50;;;;;;;4.22;90.66;100912.88;7397923;19;20026;-71
2022/12/28 08:59:16;;;;;;;3.40;2.03;;;;;;;4.28;90.27;100912.91;7399059;19;20070;-71
2022/12/28 09:01:44;;;;;;;3.88;2.40;;;;;;;4.34;91.31;100905.16;7400758;19;20014;-71
2022/12/28 09:04:18;;;;;;;6.28;2.28;;;;;;;4.43;90.63;100911.28;7399044;19;20346;-71
2022/12/28 09:06:46;;;;;;;7.40;3.63;;;;;;;4.50;89.22;100905.25;7397430;19;20035;-71
2022/12/28 09:09:16;;;;;;;7.00;2.15;;;;;;;4.56;89.64;100913.09;7398326;19;20485;-71
2022/12/28 09:11:45;;;;;;;3.13;2.45;;;;;;;4.62;89.28;100910.53;7396557;19;20035;-71
2022/12/28 09:14:15;;;;;;;2.97;1.58;;;;;;;4.67;88.52;100910.56;7398203;19;20481;-72
2022/12/28 09:16:44;;;;;;;3.47;1.90;;;;;;;4.71;89.67;100895.00;7396717;19;20508;-71
2022/12/28 09:19:16;;;;;;;2.42;1.50;;;;;;;4.72;88.45;100901.91;7398454;19;20082;-72
2022/12/28 09:21:47;;;;;;;4.43;1.98;;;;;;;4.76;88.09;100896.75;7398240;19;20074;-72
2022/12/28 09:24:16;;;;;;;4.78;1.80;;;;;;;4.79;88.48;100900.22;7395207;19;20017;-71
2022/12/28 09:26:45;;;;;;;3.38;2.00;;;;;;;4.80;86.44;100901.09;7396096;19;20081;-72
2022/12/28 09:29:14;;;;;;;3.47;1.63;;;;;;;4.82;87.95;100891.56;7398171;19;20098;-71
2022/12/28 09:31:43;;;;;;;3.30;2.00;;;;;;;4.85;88.83;100889.84;7395825;19;20034;-71
2022/12/28 09:34:16;;;;;;;3.22;1.70;;;;;;;4.88;88.59;100889.84;7395812;19;20028;-71
2022/12/28 09:36:46;;;;;;;4.22;2.30;;;;;;;4.90;88.94;100884.66;7396421;19;20025;-72
2022/12/28 09:39:16;;;;;;;2.75;1.60;;;;;;;4.93;89.20;100879.47;7397808;19;20383;-72
2022/12/28 09:41:47;;;;;;;4.22;2.28;;;;;;;4.92;88.33;100877.75;7396981;19;20397;-72
2022/12/28 09:44:39;;;;;;;4.00;2.13;;;;;;;4.93;89.64;100881.19;7397167;19;20010;-72
2022/12/28 09:47:16;;;;;;;6.15;1.90;;;;;;;4.92;89.13;100867.34;7395773;19;20094;-72
2022/12/28 09:49:59;;;;;;;4.22;2.30;;;;;;;4.92;90.05;100869.94;7392282;19;20073;-72
2022/12/28 09:52:32;;;;;;;4.35;2.20;;;;;;;4.92;89.83;100864.75;7397363;19;20089;-72
2022/12/28 09:55:08;;;;;;;4.83;2.33;;;;;;;4.95;89.62;100869.09;7394964;19;20074;-72
2022/12/28 09:57:40;;;;;;;3.03;2.25;;;;;;;4.94;88.88;100863.03;7395275;19;20015;-72
2022/12/28 10:00:17;;;;;;;4.13;2.25;;;;;;;4.97;90.15;100865.63;7396568;19;20018;-72
2022/12/28 10:02:49;;;;;;;4.55;2.92;;;;;;;4.99;89.91;100848.31;7397334;19;20028;-72
2022/12/28 10:05:22;;;;;;;5.10;2.45;;;;;;;5.00;89.20;100850.00;7394356;19;20489;-71
2022/12/28 10:07:51;;;;;;;4.95;2.40;;;;;;;5.04;89.73;100850.91;7394955;19;20015;-71
2022/12/28 10:10:22;;;;;;;8.20;2.67;;;;;;;5.04;88.74;100862.19;7396364;19;20031;-72
2022/12/28 10:12:52;;;;;;;4.30;2.78;;;;;;;5.06;89.56;100842.22;7395594;19;20074;-72
2022/12/28 10:15:22;;;;;;;5.93;2.70;;;;;;;5.10;89.85;100843.13;7396449;19;20094;-71
2022/12/28 10:17:51;;;;;;;6.38;2.40;;;;;;;5.12;88.92;100835.31;7396480;19;20032;-71
2022/12/28 10:20:24;;;;;;;5.03;2.83;;;;;;;5.14;89.28;100828.38;7394449;19;20425;-71
2022/12/28 10:22:57;;;;;;;5.00;2.22;;;;;;;5.17;89.30;100831.88;7395699;19;20077;-71
2022/12/28 10:25:28;;;;;;;5.32;2.72;;;;;;;5.21;89.85;100824.94;7394452;19;20073;-71
2022/12/28 10:27:57;;;;;;;5.18;2.15;;;;;;;5.21;89.07;100824.94;7394661;19;20101;-71
2022/12/28 10:30:28;;;;;;;4.22;2.67;;;;;;;5.25;89.65;100821.47;7395448;19;20014;-71
2022/12/28 10:32:58;;;;;;;5.97;2.50;;;;;;;5.27;88.41;100819.75;7396434;19;20022;-71
2022/12/28 10:35:32;;;;;;;3.38;2.22;;;;;;;5.31;87.95;100821.47;7394083;19;20035;-71
2022/12/28 10:38:05;;;;;;;3.80;2.40;;;;;;;5.36;88.36;100813.69;7395558;19;20020;-71
2022/12/28 10:40:36;;;;;;;6.80;4.80;;;;;;;5.41;87.83;100814.56;7396005;19;20036;-72
2022/12/28 10:43:06;;;;;;;13.38;7.43;;;;;;;5.46;88.13;100818.03;7394106;19;20101;-71
2022/12/28 10:45:38;;;;;;;5.47;2.90;;;;;;;5.53;88.76;100821.50;7394825;19;20097;-70
2022/12/28 10:48:14;;;;;;;4.60;2.38;;;;;;;5.59;88.22;100810.22;7394609;19;20082;-71
2022/12/28 10:50:51;;;;;;;4.65;2.55;;;;;;;5.62;86.78;100805.88;7393569;19;20087;-71
2022/12/28 10:53:26;;;;;;;2.55;2.17;;;;;;;5.68;88.28;100800.66;7395951;19;20082;-71
2022/12/28 10:56:04;;;;;;;5.22;2.30;;;;;;;5.74;87.38;100804.13;7395157;19;20018;-70
2022/12/28 10:58:33;;;;;;;3.50;2.70;;;;;;;5.78;89.06;100777.25;7395774;19;20087;-72
2022/12/28 11:01:04;;;;;;;5.50;3.35;;;;;;;5.83;88.50;100797.19;7394117;19;20529;-71
2022/12/28 11:03:35;;;;;;;7.18;3.13;;;;;;;5.88;88.27;100797.19;7395491;19;20018;-71
2022/12/28 11:06:21;;;;;;;6.40;4.38;;;;;;;5.91;87.04;100799.78;7394246;19;20386;-71
2022/12/28 11:09:04;;;;;;;3.38;2.50;;;;;;;5.96;86.28;100779.78;7395128;19;20078;-71
2022/12/28 11:11:35;;;;;;;3.22;2.60;;;;;;;5.97;86.58;100784.13;7395545;19;20019;-71
2022/12/28 11:14:07;;;;;;;6.10;3.50;;;;;;;6.04;86.89;100787.66;7395322;19;20074;-71
2022/12/28 11:16:39;;;;;;;3.83;2.38;;;;;;;6.06;86.64;100783.28;7393295;19;20037;-71
2022/12/28 11:19:07;;;;;;;4.45;2.40;;;;;;;6.07;85.65;100781.56;7394150;19;20082;-71
2022/12/28 11:21:39;;;;;;;3.85;2.50;;;;;;;6.11;86.01;100788.50;7392614;19;20023;-72
2022/12/28 11:24:08;;;;;;;3.85;2.40;;;;;;;6.15;86.63;100782.38;7392449;19;20082;-72
2022/12/28 11:26:37;;;;;;;3.58;2.08;;;;;;;6.17;86.49;100778.06;7392653;19;20501;-72
2022/12/28 11:29:05;;;;;;;4.68;2.17;;;;;;;6.19;86.55;100771.09;7394908;19;20481;-71
2022/12/28 11:31:39;;;;;;;4.93;2.53;;;;;;;6.24;86.81;100781.50;7394430;19;20015;-72
2022/12/28 11:34:14;;;;;;;4.22;2.65;;;;;;;6.24;85.60;100778.91;7393862;19;20015;-71
2022/12/28 11:36:46;;;;;;;4.32;2.17;;;;;;;6.28;87.29;100768.47;7392540;19;20477;-70
2022/12/28 11:39:34;;;;;;;3.20;2.25;;;;;;;6.30;85.16;100779.72;7394716;19;20097;-69
2022/12/28 11:42:03;;;;;;;5.63;2.13;;;;;;;6.33;86.17;100777.13;7393913;19;20485;-70
2022/12/28 11:44:51;;;;;;;3.42;2.00;;;;;;;6.36;84.63;100768.44;7394163;19;20039;-71
2022/12/28 11:47:31;;;;;;;5.72;2.70;;;;;;;6.40;83.63;100764.09;7392002;19;20082;-70
2022/12/28 11:50:30;;;;;;;3.58;2.13;;;;;;;6.45;84.18;100751.91;7394555;19;20018;-71
2022/12/28 11:53:02;;;;;;;4.22;3.22;;;;;;;6.50;85.67;100757.94;7392903;19;20086;-71
2022/12/28 11:55:47;;;;;;;3.97;2.58;;;;;;;6.54;84.36;100757.06;7393314;19;20035;-71
2022/12/28 11:58:55;;;;;;;3.50;2.67;;;;;;;6.57;84.24;100746.63;7391720;19;20031;-70
2022/12/28 12:01:45;;;;;;;7.18;2.38;;;;;;;6.63;84.54;100753.53;7393035;19;20489;-71
2022/12/28 12:04:34;;;;;;;2.75;2.35;;;;;;;6.66;85.84;100751.78;7392510;19;20074;-72
2022/12/28 12:07:47;;;;;;;5.82;2.92;;;;;;;6.67;83.69;100743.09;7391848;19;20039;-71
2022/12/28 12:10:32;;;;;;;4.78;2.80;;;;;;;6.67;83.76;100740.47;7394133;19;20074;-70
2022/12/28 12:13:02;;;;;;;4.35;2.28;;;;;;;6.69;84.33;100740.47;7398622;19;20014;-72
2022/12/28 12:15:41;;;;;;;3.67;2.63;;;;;;;6.71;82.60;100743.06;7400039;19;20022;-71
2022/12/28 12:18:19;;;;;;;5.50;2.50;;;;;;;6.74;84.46;100740.44;7400953;19;20078;-71
2022/12/28 12:20:56;;;;;;;4.05;2.55;;;;;;;6.77;84.07;100730.00;7400589;19;20018;-72
2022/12/28 12:23:34;;;;;;;4.15;2.33;;;;;;;6.79;82.91;100729.09;7398569;19;20007;-72
2022/12/28 12:26:19;;;;;;;4.45;2.28;;;;;;;6.81;82.66;100724.75;7398948;19;20027;-71